Lihue, HI (96766)

2:12 AM HST on March 28, 2017 (GMT -1000)
Ulu Mahi | | Change Station
Active Advisory: High Surf Advisory Active Notice: High Surf Advisory

Elev 200 ft 21.97 °N, 159.37 °W | Updated 12 seconds ago

Clear
Clear
72.7 °F
Feels Like 71 °F
N
3.2
Wind Variable Wind from East

Today
High -- | Low -- °F
--% Chance of Precip.
Yesterday
High -- | Low -- °F
Precip. -- in
Pressure 30.12 in
Visibility 10.0 miles
Clouds Clear
Heat Index 71 °F
Dew Point 69 °F
Humidity 87%
Rainfall 0.00 in
Snow Depth Not available.
6:33 AM 6:51 PM
New Moon, 0% visible
METAR PHLI 281153Z AUTO 08010KT 10SM CLR 23/20 A3012 RMK AO2 SLP197 70004 T02280200 10239 20228 58015 TSNO
Pressure 30.12 in
Visibility 10.0 miles
Clouds Clear
Heat Index 71 °F
Dew Point 69 °F
Humidity 87%
Rainfall 0.00 in
Snow Depth Not available.
6:33 AM 6:51 PM
New Moon, 0% visible
METAR PHLI 281153Z AUTO 08010KT 10SM CLR 23/20 A3012 RMK AO2 SLP197 70004 T02280200 10239 20228 58015 TSNO

Get Your Daily Forecast Email!

Thanks for signing up!

Be on the lookout for a verification email in your inbox.

You'll start receiving severe weather alerts in your inbox..

×

10-Day Weather Forecast

Almanac

Astronomy

Mar. 28, 2017 Rise Set
Actual Time
Civil Twilight
Nautical Twilight
Astronomical Twilight
Moon
Length of Visible Light
Length of Day
Tomorrow will be .
, % of the Moon is Illuminated

Today's Extremes

State Highs State Lows

Community

WunderPhotos

Upload Photos

1,962,540 photos uploaded!

WunderBlog® & News

Nearby

Air Quality

  Air Quality AQ Index Pollutant
Not available.

Snow Depth

Station Depth Elevation

Earthquake Activity

City Distance Mag. Time & Date
Minimum magnitude displayed is 2.5.

Earthquake Activity

City Distance Mag. Time & Date
Minimum magnitude displayed is 2.5.

Coastal Water Temperatures

Place Temperature

Stations

Nearby Weather Stations

Station Location Temp. Windchill Dew Point Humidity Wind Precip. Elev Updated Type
                   

Watches & Warnings

High Surf Advisory
Issued: 3:42 PM HST Mar. 27, 2017 – National Weather Service

... High surf advisory now in effect until 6 am HST Tuesday...

* surf... along north and west facing shores of Kauai and
Niihau... 15 to 20 feet... and north facing shores of Oahu... 12
to 18 feet.

* Timing... through 6 am HST Tuesday.

* Impacts... moderate... expect strong breaking waves... shore
break... and strong longshore and rip currents making swimming
difficult and dangerous.

Precautionary/preparedness actions...

Beachgoers... swimmers... and surfers should heed all advice given
by ocean safety officials and exercise caution. Boaters should
expect recreational surfers and body boarders utilizing Harbor
channels to access surfing areas.